sensor_id;sensor_type;location;lat;lon;timestamp;P1;durP1;ratioP1;P2;durP2;ratioP2
4758;SDS011;2393;50.560;12.636;2024-01-30T00:00:57;0.88;;;0.75;;
4758;SDS011;2393;50.560;12.636;2024-01-30T00:03:28;1.50;;;1.02;;
4758;SDS011;2393;50.560;12.636;2024-01-30T00:05:58;0.95;;;0.95;;
4758;SDS011;2393;50.560;12.636;2024-01-30T00:08:27;1.05;;;0.55;;
4758;SDS011;2393;50.560;12.636;2024-01-30T00:10:56;0.77;;;0.57;;
4758;SDS011;2393;50.560;12.636;2024-01-30T00:13:25;0.98;;;0.98;;
4758;SDS011;2393;50.560;12.636;2024-01-30T00:15:55;0.70;;;0.70;;
4758;SDS011;2393;50.560;12.636;2024-01-30T00:18:26;0.63;;;0.63;;
4758;SDS011;2393;50.560;12.636;2024-01-30T00:20:56;1.35;;;0.80;;
4758;SDS011;2393;50.560;12.636;2024-01-30T00:23:25;1.40;;;0.80;;
4758;SDS011;2393;50.560;12.636;2024-01-30T00:25:54;0.80;;;0.70;;
4758;SDS011;2393;50.560;12.636;2024-01-30T00:28:23;0.60;;;0.60;;
4758;SDS011;2393;50.560;12.636;2024-01-30T00:30:53;1.13;;;0.80;;
4758;SDS011;2393;50.560;12.636;2024-01-30T00:33:22;0.70;;;0.70;;
4758;SDS011;2393;50.560;12.636;2024-01-30T00:35:52;1.92;;;1.10;;
4758;SDS011;2393;50.560;12.636;2024-01-30T00:38:21;1.13;;;0.90;;
4758;SDS011;2393;50.560;12.636;2024-01-30T00:40:50;1.27;;;1.17;;
4758;SDS011;2393;50.560;12.636;2024-01-30T00:43:19;1.50;;;1.02;;
4758;SDS011;2393;50.560;12.636;2024-01-30T00:45:49;0.80;;;0.80;;
4758;SDS011;2393;50.560;12.636;2024-01-30T00:48:19;3.35;;;1.60;;
4758;SDS011;2393;50.560;12.636;2024-01-30T00:50:48;1.35;;;0.90;;
4758;SDS011;2393;50.560;12.636;2024-01-30T00:53:19;1.30;;;1.00;;
4758;SDS011;2393;50.560;12.636;2024-01-30T00:55:48;0.70;;;0.70;;
4758;SDS011;2393;50.560;12.636;2024-01-30T00:58:17;2.65;;;0.52;;
4758;SDS011;2393;50.560;12.636;2024-01-30T01:00:47;0.73;;;0.70;;
4758;SDS011;2393;50.560;12.636;2024-01-30T01:03:16;0.65;;;0.57;;
4758;SDS011;2393;50.560;12.636;2024-01-30T01:05:45;1.15;;;1.05;;
4758;SDS011;2393;50.560;12.636;2024-01-30T01:08:14;0.70;;;0.70;;
4758;SDS011;2393;50.560;12.636;2024-01-30T01:10:45;1.42;;;0.82;;
4758;SDS011;2393;50.560;12.636;2024-01-30T01:13:14;0.52;;;0.50;;
4758;SDS011;2393;50.560;12.636;2024-01-30T01:15:43;2.13;;;0.95;;
4758;SDS011;2393;50.560;12.636;2024-01-30T01:18:12;1.45;;;0.65;;
4758;SDS011;2393;50.560;12.636;2024-01-30T01:20:41;0.88;;;0.60;;
4758;SDS011;2393;50.560;12.636;2024-01-30T01:23:10;0.93;;;0.90;;
4758;SDS011;2393;50.560;12.636;2024-01-30T01:25:39;1.25;;;0.75;;
4758;SDS011;2393;50.560;12.636;2024-01-30T01:28:10;0.57;;;0.57;;
4758;SDS011;2393;50.560;12.636;2024-01-30T01:30:38;0.90;;;0.35;;
4758;SDS011;2393;50.560;12.636;2024-01-30T01:33:08;0.60;;;0.60;;
4758;SDS011;2393;50.560;12.636;2024-01-30T01:35:37;2.95;;;0.68;;
4758;SDS011;2393;50.560;12.636;2024-01-30T01:38:07;1.23;;;0.77;;
4758;SDS011;2393;50.560;12.636;2024-01-30T01:40:35;9.55;;;0.93;;
4758;SDS011;2393;50.560;12.636;2024-01-30T01:43:07;0.65;;;0.65;;
4758;SDS011;2393;50.560;12.636;2024-01-30T01:45:38;1.02;;;0.65;;
4758;SDS011;2393;50.560;12.636;2024-01-30T01:48:07;1.50;;;1.40;;
4758;SDS011;2393;50.560;12.636;2024-01-30T01:50:38;0.60;;;0.60;;
4758;SDS011;2393;50.560;12.636;2024-01-30T01:53:07;2.35;;;0.90;;
4758;SDS011;2393;50.560;12.636;2024-01-30T01:55:38;1.02;;;0.95;;
4758;SDS011;2393;50.560;12.636;2024-01-30T01:58:07;0.85;;;0.80;;
4758;SDS011;2393;50.560;12.636;2024-01-30T02:00:41;0.82;;;0.82;;
4758;SDS011;2393;50.560;12.636;2024-01-30T02:03:10;1.25;;;0.70;;
4758;SDS011;2393;50.560;12.636;2024-01-30T02:05:41;1.02;;;0.98;;
4758;SDS011;2393;50.560;12.636;2024-01-30T02:08:11;3.80;;;0.82;;
4758;SDS011;2393;50.560;12.636;2024-01-30T02:10:41;1.02;;;0.90;;
4758;SDS011;2393;50.560;12.636;2024-01-30T02:13:11;4.53;;;1.17;;
4758;SDS011;2393;50.560;12.636;2024-01-30T02:15:41;0.65;;;0.65;;
4758;SDS011;2393;50.560;12.636;2024-01-30T02:18:10;1.00;;;1.00;;
4758;SDS011;2393;50.560;12.636;2024-01-30T02:20:39;1.85;;;1.13;;
4758;SDS011;2393;50.560;12.636;2024-01-30T02:23:10;0.82;;;0.82;;
4758;SDS011;2393;50.560;12.636;2024-01-30T02:25:42;0.90;;;0.75;;
4758;SDS011;2393;50.560;12.636;2024-01-30T02:28:12;2.85;;;0.90;;
4758;SDS011;2393;50.560;12.636;2024-01-30T02:30:42;1.50;;;0.98;;
4758;SDS011;2393;50.560;12.636;2024-01-30T02:33:11;2.05;;;0.85;;
4758;SDS011;2393;50.560;12.636;2024-01-30T02:35:40;0.85;;;0.80;;
4758;SDS011;2393;50.560;12.636;2024-01-30T02:38:11;2.28;;;0.80;;
4758;SDS011;2393;50.560;12.636;2024-01-30T02:40:40;1.15;;;0.75;;
4758;SDS011;2393;50.560;12.636;2024-01-30T02:43:09;1.05;;;0.95;;
4758;SDS011;2393;50.560;12.636;2024-01-30T02:45:38;1.00;;;0.93;;
4758;SDS011;2393;50.560;12.636;2024-01-30T02:48:08;0.95;;;0.50;;
4758;SDS011;2393;50.560;12.636;2024-01-30T02:50:38;1.10;;;1.00;;
4758;SDS011;2393;50.560;12.636;2024-01-30T02:53:06;0.90;;;0.90;;
4758;SDS011;2393;50.560;12.636;2024-01-30T02:55:36;1.13;;;1.00;;
4758;SDS011;2393;50.560;12.636;2024-01-30T02:58:05;1.25;;;1.15;;
4758;SDS011;2393;50.560;12.636;2024-01-30T03:00:35;1.33;;;1.10;;
4758;SDS011;2393;50.560;12.636;2024-01-30T03:03:04;2.15;;;1.08;;
4758;SDS011;2393;50.560;12.636;2024-01-30T03:05:34;1.05;;;0.70;;
4758;SDS011;2393;50.560;12.636;2024-01-30T03:08:04;5.13;;;0.95;;
4758;SDS011;2393;50.560;12.636;2024-01-30T03:10:34;0.93;;;0.93;;
4758;SDS011;2393;50.560;12.636;2024-01-30T03:13:05;1.05;;;0.57;;
4758;SDS011;2393;50.560;12.636;2024-01-30T03:15:34;1.10;;;0.82;;
4758;SDS011;2393;50.560;12.636;2024-01-30T03:18:04;0.65;;;0.65;;
4758;SDS011;2393;50.560;12.636;2024-01-30T03:20:33;0.70;;;0.50;;
4758;SDS011;2393;50.560;12.636;2024-01-30T03:23:02;2.95;;;0.93;;
4758;SDS011;2393;50.560;12.636;2024-01-30T03:25:32;0.95;;;0.95;;
4758;SDS011;2393;50.560;12.636;2024-01-30T03:28:01;1.15;;;1.00;;
4758;SDS011;2393;50.560;12.636;2024-01-30T03:30:32;1.13;;;0.65;;
4758;SDS011;2393;50.560;12.636;2024-01-30T03:33:02;0.90;;;0.90;;
4758;SDS011;2393;50.560;12.636;2024-01-30T03:35:31;1.40;;;0.70;;
4758;SDS011;2393;50.560;12.636;2024-01-30T03:38:00;0.85;;;0.80;;
4758;SDS011;2393;50.560;12.636;2024-01-30T03:40:29;0.90;;;0.88;;
4758;SDS011;2393;50.560;12.636;2024-01-30T03:42:58;0.80;;;0.80;;
4758;SDS011;2393;50.560;12.636;2024-01-30T03:45:28;1.50;;;0.85;;
4758;SDS011;2393;50.560;12.636;2024-01-30T03:47:59;1.52;;;1.25;;
4758;SDS011;2393;50.560;12.636;2024-01-30T03:50:27;2.47;;;1.10;;
4758;SDS011;2393;50.560;12.636;2024-01-30T03:52:57;1.02;;;1.02;;
4758;SDS011;2393;50.560;12.636;2024-01-30T03:55:27;0.63;;;0.63;;
4758;SDS011;2393;50.560;12.636;2024-01-30T03:57:56;0.80;;;0.77;;
4758;SDS011;2393;50.560;12.636;2024-01-30T04:00:25;0.82;;;0.43;;
4758;SDS011;2393;50.560;12.636;2024-01-30T04:02:54;1.10;;;0.73;;
4758;SDS011;2393;50.560;12.636;2024-01-30T04:05:26;1.23;;;0.80;;
4758;SDS011;2393;50.560;12.636;2024-01-30T04:07:55;0.50;;;0.50;;
4758;SDS011;2393;50.560;12.636;2024-01-30T04:10:25;1.30;;;0.73;;
4758;SDS011;2393;50.560;12.636;2024-01-30T04:12:53;0.45;;;0.45;;
4758;SDS011;2393;50.560;12.636;2024-01-30T04:15:23;0.73;;;0.73;;
4758;SDS011;2393;50.560;12.636;2024-01-30T04:17:51;0.75;;;0.75;;
4758;SDS011;2393;50.560;12.636;2024-01-30T04:20:21;0.73;;;0.68;;
4758;SDS011;2393;50.560;12.636;2024-01-30T04:22:52;1.27;;;0.88;;
4758;SDS011;2393;50.560;12.636;2024-01-30T04:25:21;1.20;;;1.10;;
4758;SDS011;2393;50.560;12.636;2024-01-30T04:27:50;0.45;;;0.45;;
4758;SDS011;2393;50.560;12.636;2024-01-30T04:30:19;1.30;;;1.02;;
4758;SDS011;2393;50.560;12.636;2024-01-30T04:32:48;0.80;;;0.80;;
4758;SDS011;2393;50.560;12.636;2024-01-30T04:35:17;2.20;;;0.90;;
4758;SDS011;2393;50.560;12.636;2024-01-30T04:37:53;3.55;;;1.20;;
4758;SDS011;2393;50.560;12.636;2024-01-30T04:40:22;0.63;;;0.63;;
4758;SDS011;2393;50.560;12.636;2024-01-30T04:42:51;1.90;;;0.82;;
4758;SDS011;2393;50.560;12.636;2024-01-30T04:45:20;1.67;;;1.02;;
4758;SDS011;2393;50.560;12.636;2024-01-30T04:47:49;1.27;;;1.17;;
4758;SDS011;2393;50.560;12.636;2024-01-30T04:50:18;1.70;;;0.90;;
4758;SDS011;2393;50.560;12.636;2024-01-30T04:52:47;2.03;;;0.90;;
4758;SDS011;2393;50.560;12.636;2024-01-30T04:55:18;1.67;;;1.00;;
4758;SDS011;2393;50.560;12.636;2024-01-30T04:57:49;1.77;;;0.95;;
4758;SDS011;2393;50.560;12.636;2024-01-30T05:04:51;1.15;;;0.75;;
4758;SDS011;2393;50.560;12.636;2024-01-30T05:07:20;1.00;;;0.80;;
4758;SDS011;2393;50.560;12.636;2024-01-30T05:09:49;1.60;;;0.80;;
4758;SDS011;2393;50.560;12.636;2024-01-30T05:12:23;1.25;;;1.10;;
4758;SDS011;2393;50.560;12.636;2024-01-30T05:14:52;2.78;;;1.15;;
4758;SDS011;2393;50.560;12.636;2024-01-30T05:17:20;1.10;;;1.10;;
4758;SDS011;2393;50.560;12.636;2024-01-30T05:19:49;1.25;;;0.80;;
4758;SDS011;2393;50.560;12.636;2024-01-30T05:22:19;1.20;;;0.80;;
4758;SDS011;2393;50.560;12.636;2024-01-30T05:24:48;1.67;;;1.13;;
4758;SDS011;2393;50.560;12.636;2024-01-30T05:27:17;1.58;;;1.00;;
4758;SDS011;2393;50.560;12.636;2024-01-30T05:29:47;0.80;;;0.80;;
4758;SDS011;2393;50.560;12.636;2024-01-30T05:32:17;1.52;;;0.95;;
4758;SDS011;2393;50.560;12.636;2024-01-30T05:34:46;3.50;;;1.67;;
4758;SDS011;2393;50.560;12.636;2024-01-30T05:37:17;0.70;;;0.70;;
4758;SDS011;2393;50.560;12.636;2024-01-30T05:39:46;5.82;;;0.80;;
4758;SDS011;2393;50.560;12.636;2024-01-30T05:42:15;1.02;;;0.98;;
4758;SDS011;2393;50.560;12.636;2024-01-30T05:44:44;3.10;;;1.13;;
4758;SDS011;2393;50.560;12.636;2024-01-30T05:47:14;2.70;;;1.10;;
4758;SDS011;2393;50.560;12.636;2024-01-30T05:49:44;0.73;;;0.70;;
4758;SDS011;2393;50.560;12.636;2024-01-30T05:52:14;1.13;;;0.93;;
4758;SDS011;2393;50.560;12.636;2024-01-30T05:54:44;1.17;;;1.08;;
4758;SDS011;2393;50.560;12.636;2024-01-30T05:57:14;0.85;;;0.85;;
4758;SDS011;2393;50.560;12.636;2024-01-30T05:59:44;1.23;;;0.73;;
4758;SDS011;2393;50.560;12.636;2024-01-30T06:02:16;2.95;;;0.85;;
4758;SDS011;2393;50.560;12.636;2024-01-30T06:04:45;1.08;;;1.05;;
4758;SDS011;2393;50.560;12.636;2024-01-30T06:07:14;0.90;;;0.80;;
4758;SDS011;2393;50.560;12.636;2024-01-30T06:09:44;1.27;;;0.90;;
4758;SDS011;2393;50.560;12.636;2024-01-30T06:12:13;0.80;;;0.80;;
4758;SDS011;2393;50.560;12.636;2024-01-30T06:14:42;2.70;;;0.50;;
4758;SDS011;2393;50.560;12.636;2024-01-30T06:17:13;0.70;;;0.70;;
4758;SDS011;2393;50.560;12.636;2024-01-30T06:19:44;3.05;;;1.15;;
4758;SDS011;2393;50.560;12.636;2024-01-30T06:22:13;1.83;;;1.30;;
4758;SDS011;2393;50.560;12.636;2024-01-30T06:24:41;1.48;;;1.10;;
4758;SDS011;2393;50.560;12.636;2024-01-30T06:27:11;0.88;;;0.88;;
4758;SDS011;2393;50.560;12.636;2024-01-30T06:29:42;6.00;;;1.92;;
4758;SDS011;2393;50.560;12.636;2024-01-30T06:32:11;1.23;;;1.17;;
4758;SDS011;2393;50.560;12.636;2024-01-30T06:34:42;2.35;;;1.95;;
4758;SDS011;2393;50.560;12.636;2024-01-30T06:37:12;1.85;;;1.60;;
4758;SDS011;2393;50.560;12.636;2024-01-30T06:39:44;1.30;;;1.20;;
4758;SDS011;2393;50.560;12.636;2024-01-30T06:42:13;1.00;;;1.00;;
4758;SDS011;2393;50.560;12.636;2024-01-30T06:44:43;1.30;;;1.15;;
4758;SDS011;2393;50.560;12.636;2024-01-30T06:47:12;4.00;;;1.20;;
4758;SDS011;2393;50.560;12.636;2024-01-30T06:49:44;3.92;;;1.50;;
4758;SDS011;2393;50.560;12.636;2024-01-30T06:52:13;0.95;;;0.80;;
4758;SDS011;2393;50.560;12.636;2024-01-30T06:54:42;1.33;;;1.33;;
4758;SDS011;2393;50.560;12.636;2024-01-30T06:57:10;1.90;;;1.60;;
4758;SDS011;2393;50.560;12.636;2024-01-30T06:59:41;1.58;;;1.05;;
4758;SDS011;2393;50.560;12.636;2024-01-30T07:02:11;3.10;;;1.70;;
4758;SDS011;2393;50.560;12.636;2024-01-30T07:04:40;10.50;;;2.17;;
4758;SDS011;2393;50.560;12.636;2024-01-30T07:07:14;13.70;;;4.22;;
4758;SDS011;2393;50.560;12.636;2024-01-30T07:09:44;14.63;;;5.45;;
4758;SDS011;2393;50.560;12.636;2024-01-30T07:12:15;17.50;;;4.97;;
4758;SDS011;2393;50.560;12.636;2024-01-30T07:14:43;9.30;;;2.83;;
4758;SDS011;2393;50.560;12.636;2024-01-30T07:17:12;2.95;;;2.20;;
4758;SDS011;2393;50.560;12.636;2024-01-30T07:19:41;5.05;;;1.45;;
4758;SDS011;2393;50.560;12.636;2024-01-30T07:22:11;6.25;;;1.92;;
4758;SDS011;2393;50.560;12.636;2024-01-30T07:24:43;1.70;;;1.05;;
4758;SDS011;2393;50.560;12.636;2024-01-30T07:27:15;3.83;;;1.20;;
4758;SDS011;2393;50.560;12.636;2024-01-30T07:29:45;2.05;;;1.20;;
4758;SDS011;2393;50.560;12.636;2024-01-30T07:32:15;1.33;;;1.08;;
4758;SDS011;2393;50.560;12.636;2024-01-30T07:34:46;2.00;;;1.15;;
4758;SDS011;2393;50.560;12.636;2024-01-30T07:37:32;1.02;;;0.93;;
4758;SDS011;2393;50.560;12.636;2024-01-30T07:40:03;1.95;;;1.40;;
4758;SDS011;2393;50.560;12.636;2024-01-30T07:42:33;3.40;;;1.42;;
4758;SDS011;2393;50.560;12.636;2024-01-30T07:45:03;1.15;;;0.82;;
4758;SDS011;2393;50.560;12.636;2024-01-30T07:47:32;2.47;;;0.90;;
4758;SDS011;2393;50.560;12.636;2024-01-30T07:50:01;2.35;;;0.88;;
4758;SDS011;2393;50.560;12.636;2024-01-30T07:52:30;1.67;;;1.30;;
4758;SDS011;2393;50.560;12.636;2024-01-30T07:54:59;2.70;;;1.30;;
4758;SDS011;2393;50.560;12.636;2024-01-30T07:57:30;1.98;;;1.40;;
4758;SDS011;2393;50.560;12.636;2024-01-30T07:59:58;2.50;;;1.40;;
4758;SDS011;2393;50.560;12.636;2024-01-30T08:02:32;1.67;;;0.93;;
4758;SDS011;2393;50.560;12.636;2024-01-30T08:05:01;1.73;;;1.42;;
4758;SDS011;2393;50.560;12.636;2024-01-30T08:07:32;3.72;;;0.95;;
4758;SDS011;2393;50.560;12.636;2024-01-30T08:10:02;1.40;;;1.30;;
4758;SDS011;2393;50.560;12.636;2024-01-30T08:12:33;2.80;;;1.48;;
4758;SDS011;2393;50.560;12.636;2024-01-30T08:15:02;2.13;;;1.00;;
4758;SDS011;2393;50.560;12.636;2024-01-30T08:17:32;0.73;;;0.73;;
4758;SDS011;2393;50.560;12.636;2024-01-30T08:20:02;2.40;;;1.35;;
4758;SDS011;2393;50.560;12.636;2024-01-30T08:22:32;1.70;;;1.60;;
4758;SDS011;2393;50.560;12.636;2024-01-30T08:25:02;1.27;;;1.27;;
4758;SDS011;2393;50.560;12.636;2024-01-30T08:27:33;1.60;;;1.60;;
4758;SDS011;2393;50.560;12.636;2024-01-30T08:30:03;1.98;;;1.83;;
4758;SDS011;2393;50.560;12.636;2024-01-30T08:32:33;2.13;;;2.03;;
4758;SDS011;2393;50.560;12.636;2024-01-30T08:35:02;1.50;;;1.42;;
4758;SDS011;2393;50.560;12.636;2024-01-30T08:37:32;6.28;;;1.63;;
4758;SDS011;2393;50.560;12.636;2024-01-30T08:40:02;6.18;;;2.63;;
4758;SDS011;2393;50.560;12.636;2024-01-30T08:42:34;7.43;;;2.72;;
4758;SDS011;2393;50.560;12.636;2024-01-30T08:45:03;1.40;;;1.38;;
4758;SDS011;2393;50.560;12.636;2024-01-30T08:47:33;1.80;;;0.93;;
4758;SDS011;2393;50.560;12.636;2024-01-30T08:50:04;3.80;;;0.90;;
4758;SDS011;2393;50.560;12.636;2024-01-30T08:52:34;2.92;;;1.00;;
4758;SDS011;2393;50.560;12.636;2024-01-30T08:55:06;4.10;;;1.40;;
4758;SDS011;2393;50.560;12.636;2024-01-30T08:57:39;1.95;;;1.80;;
4758;SDS011;2393;50.560;12.636;2024-01-30T09:00:08;2.78;;;1.75;;
4758;SDS011;2393;50.560;12.636;2024-01-30T09:02:38;3.83;;;1.90;;
4758;SDS011;2393;50.560;12.636;2024-01-30T09:05:07;1.70;;;1.47;;
4758;SDS011;2393;50.560;12.636;2024-01-30T09:07:37;10.10;;;2.13;;
4758;SDS011;2393;50.560;12.636;2024-01-30T09:10:08;1.83;;;1.60;;
4758;SDS011;2393;50.560;12.636;2024-01-30T09:12:42;5.90;;;1.60;;
4758;SDS011;2393;50.560;12.636;2024-01-30T09:15:11;4.67;;;1.80;;
4758;SDS011;2393;50.560;12.636;2024-01-30T09:17:40;1.93;;;1.83;;
4758;SDS011;2393;50.560;12.636;2024-01-30T09:20:10;10.97;;;1.67;;
4758;SDS011;2393;50.560;12.636;2024-01-30T09:22:39;2.03;;;1.80;;
4758;SDS011;2393;50.560;12.636;2024-01-30T09:25:08;2.63;;;1.60;;
4758;SDS011;2393;50.560;12.636;2024-01-30T09:27:37;7.07;;;2.60;;
4758;SDS011;2393;50.560;12.636;2024-01-30T09:30:09;2.87;;;1.73;;
4758;SDS011;2393;50.560;12.636;2024-01-30T09:32:39;2.23;;;1.63;;
4758;SDS011;2393;50.560;12.636;2024-01-30T09:35:08;8.27;;;2.00;;
4758;SDS011;2393;50.560;12.636;2024-01-30T09:37:37;1.93;;;1.83;;
4758;SDS011;2393;50.560;12.636;2024-01-30T09:40:07;2.07;;;1.70;;
4758;SDS011;2393;50.560;12.636;2024-01-30T09:42:37;3.00;;;1.90;;
4758;SDS011;2393;50.560;12.636;2024-01-30T09:45:08;4.80;;;2.20;;
4758;SDS011;2393;50.560;12.636;2024-01-30T09:47:41;8.90;;;2.30;;
4758;SDS011;2393;50.560;12.636;2024-01-30T09:50:12;2.23;;;2.03;;
4758;SDS011;2393;50.560;12.636;2024-01-30T09:52:42;2.10;;;1.90;;
4758;SDS011;2393;50.560;12.636;2024-01-30T09:55:12;2.30;;;2.10;;
4758;SDS011;2393;50.560;12.636;2024-01-30T09:57:42;2.87;;;1.97;;
4758;SDS011;2393;50.560;12.636;2024-01-30T10:00:13;8.13;;;3.30;;
4758;SDS011;2393;50.560;12.636;2024-01-30T10:02:43;4.33;;;2.50;;
4758;SDS011;2393;50.560;12.636;2024-01-30T10:05:13;3.43;;;2.00;;
4758;SDS011;2393;50.560;12.636;2024-01-30T10:07:52;2.03;;;1.93;;
4758;SDS011;2393;50.560;12.636;2024-01-30T10:10:23;2.73;;;2.00;;
4758;SDS011;2393;50.560;12.636;2024-01-30T10:12:52;2.10;;;1.50;;
4758;SDS011;2393;50.560;12.636;2024-01-30T10:15:22;1.60;;;1.50;;
4758;SDS011;2393;50.560;12.636;2024-01-30T10:17:52;3.03;;;2.17;;
4758;SDS011;2393;50.560;12.636;2024-01-30T10:20:21;1.80;;;1.70;;
4758;SDS011;2393;50.560;12.636;2024-01-30T10:22:51;4.40;;;2.27;;
4758;SDS011;2393;50.560;12.636;2024-01-30T10:25:21;4.60;;;2.43;;
4758;SDS011;2393;50.560;12.636;2024-01-30T10:27:52;5.13;;;2.40;;
4758;SDS011;2393;50.560;12.636;2024-01-30T10:30:23;3.27;;;2.17;;
4758;SDS011;2393;50.560;12.636;2024-01-30T10:32:52;2.77;;;2.13;;
4758;SDS011;2393;50.560;12.636;2024-01-30T10:35:21;7.97;;;2.50;;
4758;SDS011;2393;50.560;12.636;2024-01-30T10:37:50;3.00;;;2.53;;
4758;SDS011;2393;50.560;12.636;2024-01-30T10:40:21;5.30;;;2.93;;
4758;SDS011;2393;50.560;12.636;2024-01-30T10:42:55;6.67;;;2.40;;
4758;SDS011;2393;50.560;12.636;2024-01-30T10:45:27;5.70;;;2.40;;
4758;SDS011;2393;50.560;12.636;2024-01-30T10:47:58;2.67;;;2.13;;
4758;SDS011;2393;50.560;12.636;2024-01-30T10:50:30;6.57;;;2.60;;
4758;SDS011;2393;50.560;12.636;2024-01-30T10:53:16;5.10;;;2.30;;
4758;SDS011;2393;50.560;12.636;2024-01-30T10:55:46;3.97;;;2.50;;
4758;SDS011;2393;50.560;12.636;2024-01-30T10:58:18;4.57;;;2.33;;
4758;SDS011;2393;50.560;12.636;2024-01-30T11:00:50;2.57;;;2.10;;
4758;SDS011;2393;50.560;12.636;2024-01-30T11:03:20;2.50;;;2.30;;
4758;SDS011;2393;50.560;12.636;2024-01-30T11:05:50;4.77;;;2.27;;
4758;SDS011;2393;50.560;12.636;2024-01-30T11:08:23;3.13;;;2.07;;
4758;SDS011;2393;50.560;12.636;2024-01-30T11:10:55;6.20;;;2.80;;
4758;SDS011;2393;50.560;12.636;2024-01-30T11:13:29;4.30;;;2.60;;
4758;SDS011;2393;50.560;12.636;2024-01-30T11:16:04;4.27;;;2.40;;
4758;SDS011;2393;50.560;12.636;2024-01-30T11:18:35;2.30;;;2.13;;
4758;SDS011;2393;50.560;12.636;2024-01-30T11:21:04;2.17;;;2.07;;
4758;SDS011;2393;50.560;12.636;2024-01-30T11:23:33;6.37;;;2.80;;
4758;SDS011;2393;50.560;12.636;2024-01-30T11:26:03;4.23;;;2.00;;
4758;SDS011;2393;50.560;12.636;2024-01-30T11:28:33;1.87;;;1.70;;
4758;SDS011;2393;50.560;12.636;2024-01-30T11:31:04;4.50;;;1.93;;
4758;SDS011;2393;50.560;12.636;2024-01-30T11:33:34;5.63;;;2.33;;
4758;SDS011;2393;50.560;12.636;2024-01-30T11:36:04;4.30;;;2.30;;
4758;SDS011;2393;50.560;12.636;2024-01-30T11:38:35;1.73;;;1.63;;
4758;SDS011;2393;50.560;12.636;2024-01-30T11:41:04;3.60;;;1.90;;
4758;SDS011;2393;50.560;12.636;2024-01-30T11:43:34;2.80;;;1.90;;
4758;SDS011;2393;50.560;12.636;2024-01-30T11:46:07;3.23;;;2.57;;
4758;SDS011;2393;50.560;12.636;2024-01-30T11:48:37;8.80;;;2.80;;
4758;SDS011;2393;50.560;12.636;2024-01-30T11:51:08;5.03;;;2.20;;
4758;SDS011;2393;50.560;12.636;2024-01-30T11:53:37;2.27;;;2.07;;
4758;SDS011;2393;50.560;12.636;2024-01-30T11:56:07;6.07;;;2.07;;
4758;SDS011;2393;50.560;12.636;2024-01-30T11:58:36;3.50;;;2.40;;
4758;SDS011;2393;50.560;12.636;2024-01-30T12:01:07;2.30;;;1.93;;
4758;SDS011;2393;50.560;12.636;2024-01-30T12:03:36;5.83;;;2.07;;
4758;SDS011;2393;50.560;12.636;2024-01-30T12:06:05;2.07;;;1.97;;
4758;SDS011;2393;50.560;12.636;2024-01-30T12:08:35;4.07;;;2.40;;
4758;SDS011;2393;50.560;12.636;2024-01-30T12:11:06;4.57;;;2.37;;
4758;SDS011;2393;50.560;12.636;2024-01-30T12:13:35;3.43;;;1.83;;
4758;SDS011;2393;50.560;12.636;2024-01-30T12:16:07;8.23;;;2.43;;
4758;SDS011;2393;50.560;12.636;2024-01-30T12:18:36;3.90;;;2.10;;
4758;SDS011;2393;50.560;12.636;2024-01-30T12:21:05;7.60;;;2.87;;
4758;SDS011;2393;50.560;12.636;2024-01-30T12:23:36;7.07;;;2.10;;
4758;SDS011;2393;50.560;12.636;2024-01-30T12:26:05;4.70;;;2.23;;
4758;SDS011;2393;50.560;12.636;2024-01-30T12:28:34;4.40;;;2.93;;
4758;SDS011;2393;50.560;12.636;2024-01-30T12:31:03;2.10;;;1.60;;
4758;SDS011;2393;50.560;12.636;2024-01-30T12:33:35;4.40;;;2.50;;
4758;SDS011;2393;50.560;12.636;2024-01-30T12:36:05;4.60;;;2.53;;
4758;SDS011;2393;50.560;12.636;2024-01-30T12:38:35;4.50;;;2.47;;
4758;SDS011;2393;50.560;12.636;2024-01-30T12:41:06;2.50;;;2.27;;
4758;SDS011;2393;50.560;12.636;2024-01-30T12:43:37;2.60;;;2.20;;
4758;SDS011;2393;50.560;12.636;2024-01-30T12:46:06;2.40;;;2.13;;
4758;SDS011;2393;50.560;12.636;2024-01-30T12:48:37;3.00;;;2.43;;
4758;SDS011;2393;50.560;12.636;2024-01-30T12:51:06;5.40;;;2.40;;
4758;SDS011;2393;50.560;12.636;2024-01-30T12:53:35;5.23;;;2.00;;
4758;SDS011;2393;50.560;12.636;2024-01-30T12:56:04;2.27;;;2.13;;
4758;SDS011;2393;50.560;12.636;2024-01-30T12:58:34;3.27;;;1.70;;
4758;SDS011;2393;50.560;12.636;2024-01-30T13:01:02;5.40;;;2.30;;
4758;SDS011;2393;50.560;12.636;2024-01-30T13:03:32;3.60;;;2.27;;
4758;SDS011;2393;50.560;12.636;2024-01-30T13:06:05;3.00;;;2.80;;
4758;SDS011;2393;50.560;12.636;2024-01-30T13:08:35;2.53;;;2.30;;
4758;SDS011;2393;50.560;12.636;2024-01-30T13:11:04;2.80;;;2.57;;
4758;SDS011;2393;50.560;12.636;2024-01-30T13:13:43;5.53;;;2.50;;
4758;SDS011;2393;50.560;12.636;2024-01-30T13:16:12;5.50;;;2.63;;
4758;SDS011;2393;50.560;12.636;2024-01-30T13:18:41;3.30;;;2.80;;
4758;SDS011;2393;50.560;12.636;2024-01-30T13:21:12;11.30;;;2.27;;
4758;SDS011;2393;50.560;12.636;2024-01-30T13:23:41;4.07;;;2.60;;
4758;SDS011;2393;50.560;12.636;2024-01-30T13:26:10;3.83;;;1.97;;
4758;SDS011;2393;50.560;12.636;2024-01-30T13:28:39;5.20;;;2.30;;
4758;SDS011;2393;50.560;12.636;2024-01-30T13:31:08;3.80;;;2.20;;
4758;SDS011;2393;50.560;12.636;2024-01-30T13:33:37;3.43;;;2.60;;
4758;SDS011;2393;50.560;12.636;2024-01-30T13:36:06;10.60;;;2.27;;
4758;SDS011;2393;50.560;12.636;2024-01-30T13:38:36;5.03;;;1.90;;
4758;SDS011;2393;50.560;12.636;2024-01-30T13:41:05;5.33;;;2.53;;
4758;SDS011;2393;50.560;12.636;2024-01-30T13:43:34;7.47;;;1.80;;
4758;SDS011;2393;50.560;12.636;2024-01-30T13:46:03;5.40;;;3.00;;
4758;SDS011;2393;50.560;12.636;2024-01-30T13:48:32;7.23;;;2.80;;
4758;SDS011;2393;50.560;12.636;2024-01-30T13:51:00;2.97;;;2.77;;
4758;SDS011;2393;50.560;12.636;2024-01-30T13:53:30;4.13;;;2.50;;
4758;SDS011;2393;50.560;12.636;2024-01-30T13:56:00;5.60;;;3.00;;
4758;SDS011;2393;50.560;12.636;2024-01-30T13:58:29;4.20;;;2.50;;
4758;SDS011;2393;50.560;12.636;2024-01-30T14:01:00;4.70;;;2.37;;
4758;SDS011;2393;50.560;12.636;2024-01-30T14:03:30;7.30;;;3.17;;
4758;SDS011;2393;50.560;12.636;2024-01-30T14:05:59;2.90;;;2.60;;
4758;SDS011;2393;50.560;12.636;2024-01-30T14:08:30;2.63;;;2.43;;
4758;SDS011;2393;50.560;12.636;2024-01-30T14:11:01;7.77;;;2.67;;
4758;SDS011;2393;50.560;12.636;2024-01-30T14:13:30;3.40;;;2.30;;
4758;SDS011;2393;50.560;12.636;2024-01-30T14:15:59;8.30;;;3.17;;
4758;SDS011;2393;50.560;12.636;2024-01-30T14:18:31;2.17;;;2.00;;
4758;SDS011;2393;50.560;12.636;2024-01-30T14:21:00;6.07;;;3.00;;
4758;SDS011;2393;50.560;12.636;2024-01-30T14:23:31;7.33;;;2.70;;
4758;SDS011;2393;50.560;12.636;2024-01-30T14:25:59;6.07;;;2.13;;
4758;SDS011;2393;50.560;12.636;2024-01-30T14:28:29;4.10;;;2.67;;
4758;SDS011;2393;50.560;12.636;2024-01-30T14:30:58;2.60;;;1.90;;
4758;SDS011;2393;50.560;12.636;2024-01-30T14:33:27;2.23;;;1.97;;
4758;SDS011;2393;50.560;12.636;2024-01-30T14:35:56;2.40;;;2.03;;
4758;SDS011;2393;50.560;12.636;2024-01-30T14:38:26;1.90;;;1.77;;
4758;SDS011;2393;50.560;12.636;2024-01-30T14:40:56;2.87;;;1.80;;
4758;SDS011;2393;50.560;12.636;2024-01-30T14:43:26;2.13;;;2.03;;
4758;SDS011;2393;50.560;12.636;2024-01-30T14:45:54;4.50;;;2.67;;
4758;SDS011;2393;50.560;12.636;2024-01-30T14:48:25;3.93;;;1.80;;
4758;SDS011;2393;50.560;12.636;2024-01-30T14:50:54;3.77;;;2.07;;
4758;SDS011;2393;50.560;12.636;2024-01-30T14:53:23;2.47;;;2.10;;
4758;SDS011;2393;50.560;12.636;2024-01-30T14:55:52;3.00;;;2.03;;
4758;SDS011;2393;50.560;12.636;2024-01-30T14:58:21;4.63;;;2.30;;
4758;SDS011;2393;50.560;12.636;2024-01-30T15:00:51;2.93;;;2.33;;
4758;SDS011;2393;50.560;12.636;2024-01-30T15:03:24;3.70;;;2.20;;
4758;SDS011;2393;50.560;12.636;2024-01-30T15:05:55;4.07;;;2.90;;
4758;SDS011;2393;50.560;12.636;2024-01-30T15:08:25;2.10;;;2.00;;
4758;SDS011;2393;50.560;12.636;2024-01-30T15:10:54;2.00;;;1.90;;
4758;SDS011;2393;50.560;12.636;2024-01-30T15:13:25;7.90;;;4.17;;
4758;SDS011;2393;50.560;12.636;2024-01-30T15:15:55;2.70;;;2.40;;
4758;SDS011;2393;50.560;12.636;2024-01-30T15:18:25;10.03;;;3.70;;
4758;SDS011;2393;50.560;12.636;2024-01-30T15:20:54;4.10;;;2.53;;